Time;durP1;ratioP1;P1;durP2;ratioP2;P2;SDS_P1;SDS_P2;PMS_P1;PMS_P2;Temp;Humidity;BMP_temperature;BMP_pressure;BME280_temperature;BME280_humidity;BME280_pressure;Samples;Min_cycle;Max_cycle;Signal;HPM_P1;HPM_P2
2022/03/28 00:01:55;;;;;;;15.95;8.00;;;6.90;99.90;;;;;;4988398;28;20483;-87
2022/03/28 00:04:20;;;;;;;14.60;7.93;;;6.60;99.90;;;;;;5010845;28;20250;-87
2022/03/28 00:06:46;;;;;;;14.32;7.70;;;6.60;99.90;;;;;;4990567;28;20164;-87
2022/03/28 00:09:12;;;;;;;14.73;7.32;;;6.80;99.90;;;;;;4989915;28;20079;-87
2022/03/28 00:11:38;;;;;;;12.95;7.03;;;7.80;99.90;;;;;;4984311;28;20395;-88
2022/03/28 00:14:04;;;;;;;13.25;6.82;;;6.50;99.90;;;;;;4975033;28;20044;-87
2022/03/28 00:16:30;;;;;;;14.70;7.25;;;6.80;99.90;;;;;;4989941;28;20100;-86
2022/03/28 00:18:56;;;;;;;15.40;7.70;;;7.20;99.90;;;;;;5010538;28;20025;-86
2022/03/28 00:21:22;;;;;;;15.00;8.02;;;6.80;99.90;;;;;;4972961;28;20474;-87
2022/03/28 00:23:48;;;;;;;16.88;8.60;;;6.40;99.90;;;;;;4990708;28;20061;-88
2022/03/28 00:26:13;;;;;;;17.52;8.48;;;6.40;99.90;;;;;;4989169;28;20085;-87
2022/03/28 00:28:39;;;;;;;14.55;8.50;;;6.30;99.90;;;;;;4991848;28;20057;-87
2022/03/28 00:31:05;;;;;;;16.98;8.45;;;6.30;99.90;;;;;;4960880;28;20033;-87
2022/03/28 00:33:31;;;;;;;15.88;8.73;;;6.30;99.90;;;;;;4956329;28;20403;-87
2022/03/28 00:35:56;;;;;;;15.73;8.23;;;6.60;99.90;;;;;;4993319;28;20148;-87
2022/03/28 00:38:22;;;;;;;15.45;8.05;;;6.30;99.90;;;;;;4990973;28;20037;-87
2022/03/28 00:40:48;;;;;;;16.02;8.82;;;6.50;99.90;;;;;;4959690;28;20576;-87
2022/03/28 00:43:14;;;;;;;15.48;8.35;;;6.30;99.90;;;;;;4989618;28;20037;-87
2022/03/28 00:45:42;;;;;;;16.02;8.80;;;6.30;99.90;;;;;;4990209;28;20095;-87
2022/03/28 00:48:09;;;;;;;14.00;7.82;;;7.50;99.90;;;;;;4989527;28;20474;-87
2022/03/28 00:50:36;;;;;;;13.93;7.20;;;7.20;99.90;;;;;;4992484;28;20037;-87
2022/03/28 00:53:05;;;;;;;14.43;7.30;;;7.10;99.90;;;;;;4991107;28;20156;-87
2022/03/28 00:55:31;;;;;;;15.98;6.68;;;6.30;99.90;;;;;;4987974;28;20045;-87
2022/03/28 00:57:57;;;;;;;13.85;7.00;;;7.40;99.90;;;;;;4992051;28;20136;-87
2022/03/28 01:00:23;;;;;;;14.43;7.07;;;6.80;99.90;;;;;;5013616;28;20057;-86
2022/03/28 01:02:49;;;;;;;15.75;7.88;;;7.00;99.90;;;;;;4972534;28;20540;-87
2022/03/28 01:05:15;;;;;;;19.05;7.85;;;6.30;99.90;;;;;;4988297;28;20128;-87
2022/03/28 01:07:42;;;;;;;15.60;7.65;;;6.90;99.90;;;;;;4975211;28;20128;-87
2022/03/28 01:10:10;;;;;;;13.95;8.50;;;6.50;99.90;;;;;;5003412;28;20029;-87
2022/03/28 01:12:37;;;;;;;15.60;8.05;;;6.30;99.90;;;;;;5002751;28;20037;-87
2022/03/28 01:15:04;;;;;;;13.48;7.03;;;6.80;99.90;;;;;;4986566;28;20053;-86
2022/03/28 01:20:15;;;;;;;12.93;7.20;;;6.30;99.90;;;;;;5002125;28;20040;-86
2022/03/28 01:22:41;;;;;;;12.80;7.32;;;6.30;99.90;;;;;;4971384;28;20037;-87
2022/03/28 01:25:07;;;;;;;12.80;7.13;;;7.50;99.90;;;;;;4986818;28;20130;-87
2022/03/28 01:27:36;;;;;;;15.60;7.65;;;6.30;99.90;;;;;;5000112;28;20075;-87
2022/03/28 01:30:04;;;;;;;16.17;7.95;;;6.30;99.90;;;;;;4993389;28;20045;-87
2022/03/28 01:32:30;;;;;;;16.77;9.02;;;6.30;99.90;;;;;;4970469;28;20049;-87
2022/03/28 01:34:56;;;;;;;15.75;9.02;;;8.10;99.90;;;;;;4957790;28;20038;-88
2022/03/28 01:37:22;;;;;;;17.63;9.82;;;6.20;99.90;;;;;;4990120;28;20111;-87
2022/03/28 01:39:49;;;;;;;17.08;9.82;;;6.30;99.90;;;;;;5014259;28;20088;-87
2022/03/28 01:42:15;;;;;;;16.10;10.25;;;7.30;99.90;;;;;;5014424;28;20083;-87
2022/03/28 01:44:41;;;;;;;15.07;8.70;;;6.20;99.90;;;;;;5026702;28;20045;-87
2022/03/28 01:47:07;;;;;;;14.27;8.50;;;7.80;99.90;;;;;;5028064;28;20040;-87
2022/03/28 01:49:33;;;;;;;17.65;8.57;;;6.30;99.90;;;;;;5023031;28;20495;-87
2022/03/28 01:51:58;;;;;;;19.52;10.13;;;7.50;99.90;;;;;;4975238;28;20452;-86
2022/03/28 01:54:24;;;;;;;15.73;9.30;;;7.50;99.90;;;;;;4979285;28;20041;-87
2022/03/28 01:56:50;;;;;;;16.52;9.68;;;6.40;99.90;;;;;;5012077;28;20037;-87
2022/03/28 01:59:16;;;;;;;17.17;8.88;;;6.30;99.90;;;;;;4988609;28;20041;-87
2022/03/28 02:01:42;;;;;;;19.55;9.30;;;7.90;99.90;;;;;;5024544;28;20037;-87
2022/03/28 02:04:08;;;;;;;17.45;9.32;;;6.30;99.90;;;;;;4988446;28;20489;-87
2022/03/28 02:06:34;;;;;;;17.75;8.52;;;6.30;99.90;;;;;;5027045;28;20131;-87
2022/03/28 02:09:00;;;;;;;16.80;9.10;;;6.20;99.90;;;;;;4995496;28;20041;-87
2022/03/28 02:11:26;;;;;;;16.55;8.85;;;6.80;99.90;;;;;;4991564;28;20037;-87
2022/03/28 02:13:52;;;;;;;15.38;8.32;;;6.30;99.90;;;;;;5012546;28;20044;-87
2022/03/28 02:16:17;;;;;;;14.75;7.85;;;6.90;99.90;;;;;;4973830;28;20111;-87
2022/03/28 02:18:44;;;;;;;16.58;8.65;;;7.10;99.90;;;;;;4984472;28;20394;-87
2022/03/28 02:21:09;;;;;;;14.63;8.02;;;7.40;99.90;;;;;;5025890;28;20103;-87
2022/03/28 02:23:35;;;;;;;16.73;7.80;;;7.20;99.90;;;;;;4996228;28;20037;-87
2022/03/28 02:26:02;;;;;;;18.30;8.00;;;6.20;99.90;;;;;;5010218;28;20053;-87
2022/03/28 02:28:29;;;;;;;17.23;7.93;;;6.90;99.90;;;;;;4995369;28;20044;-87
2022/03/28 02:30:55;;;;;;;17.20;7.78;;;6.10;99.90;;;;;;4990645;28;20029;-88
2022/03/28 02:33:21;;;;;;;15.63;7.70;;;7.10;99.90;;;;;;5010933;28;20039;-87
2022/03/28 02:35:47;;;;;;;16.00;8.00;;;6.00;99.90;;;;;;5005542;28;20039;-88
2022/03/28 02:38:13;;;;;;;15.13;8.05;;;6.00;99.90;;;;;;5009173;28;20566;-87
2022/03/28 02:40:39;;;;;;;16.60;8.85;;;7.70;99.90;;;;;;4997413;28;20518;-87
2022/03/28 02:43:05;;;;;;;20.15;9.32;;;6.00;99.90;;;;;;4998926;28;20101;-87
2022/03/28 02:45:34;;;;;;;13.50;6.95;;;6.70;99.90;;;;;;4974387;28;20034;-87
2022/03/28 02:48:00;;;;;;;11.60;5.50;;;5.90;99.90;;;;;;4992599;28;20495;-87
2022/03/28 02:50:26;;;;;;;14.88;5.65;;;7.00;99.90;;;;;;4977979;28;20106;-87
2022/03/28 02:52:52;;;;;;;13.98;5.95;;;5.80;99.90;;;;;;5022008;28;20037;-87
2022/03/28 02:55:18;;;;;;;14.20;6.15;;;5.80;99.90;;;;;;5016973;28;20498;-86
2022/03/28 02:57:44;;;;;;;15.40;6.75;;;5.70;99.90;;;;;;5029881;28;20406;-87
2022/03/28 03:00:10;;;;;;;14.90;6.68;;;5.70;99.90;;;;;;5000152;28;20207;-87
2022/03/28 03:02:40;;;;;;;15.82;7.22;;;5.70;99.90;;;;;;5002799;28;20486;-87
2022/03/28 03:05:07;;;;;;;16.65;8.32;;;5.80;99.90;;;;;;4979195;28;20038;-87
2022/03/28 03:07:33;;;;;;;18.77;8.73;;;5.60;99.90;;;;;;4985417;28;20033;-87
2022/03/28 03:09:59;;;;;;;19.27;8.95;;;5.60;99.90;;;;;;5007314;28;20049;-87
2022/03/28 03:12:25;;;;;;;20.38;8.63;;;6.80;99.90;;;;;;5000429;28;20038;-87
2022/03/28 03:14:51;;;;;;;12.65;6.25;;;5.60;99.90;;;;;;4997530;28;20071;-87
2022/03/28 03:17:18;;;;;;;13.13;5.93;;;5.60;99.90;;;;;;4992869;28;20037;-87
2022/03/28 03:19:44;;;;;;;16.10;7.68;;;5.60;99.90;;;;;;5013499;28;20069;-87
2022/03/28 03:22:13;;;;;;;18.08;8.77;;;5.50;99.90;;;;;;4980739;28;20108;-86
2022/03/28 03:24:43;;;;;;;20.50;9.98;;;5.60;99.90;;;;;;5000572;28;20045;-86
2022/03/28 03:27:09;;;;;;;18.65;9.45;;;5.50;99.90;;;;;;5020924;28;20402;-87
2022/03/28 03:29:36;;;;;;;18.92;9.63;;;5.50;99.90;;;;;;5000625;28;20065;-87
2022/03/28 03:32:03;;;;;;;20.55;9.40;;;5.90;99.90;;;;;;4979442;28;20075;-86
2022/03/28 03:34:29;;;;;;;19.45;10.10;;;5.50;99.90;;;;;;5010441;28;20116;-87
2022/03/28 03:36:55;;;;;;;18.35;9.98;;;6.00;99.90;;;;;;4995502;28;20487;-87
2022/03/28 03:39:22;;;;;;;18.05;9.90;;;5.50;99.90;;;;;;4998152;28;20072;-87
2022/03/28 03:41:49;;;;;;;17.98;8.98;;;6.90;99.90;;;;;;4986709;28;20034;-87
2022/03/28 03:44:15;;;;;;;19.80;10.45;;;6.00;99.90;;;;;;4977703;28;20117;-86
2022/03/28 03:46:40;;;;;;;27.25;14.15;;;5.80;99.90;;;;;;4992101;28;20124;-87
2022/03/28 03:49:06;;;;;;;25.15;14.07;;;6.40;99.90;;;;;;4991516;28;20110;-87
2022/03/28 03:51:32;;;;;;;23.52;13.40;;;5.50;99.90;;;;;;4977082;28;20053;-86
2022/03/28 03:53:58;;;;;;;20.88;11.75;;;6.30;99.90;;;;;;4975742;28;20092;-86
2022/03/28 03:56:23;;;;;;;19.70;10.02;;;6.20;99.90;;;;;;4979112;28;20037;-87
2022/03/28 03:58:49;;;;;;;15.43;7.75;;;5.60;99.90;;;;;;4971496;28;20060;-86
2022/03/28 04:01:15;;;;;;;13.93;6.75;;;5.40;99.90;;;;;;4978573;28;20035;-87
2022/03/28 04:03:40;;;;;;;14.32;7.15;;;5.30;99.90;;;;;;4973016;28;20539;-86
2022/03/28 04:06:10;;;;;;;12.63;5.85;;;5.30;99.90;;;;;;4981349;28;20045;-87
2022/03/28 04:08:36;;;;;;;11.30;5.05;;;5.30;99.90;;;;;;4986152;28;20281;-86
2022/03/28 04:11:02;;;;;;;11.25;5.15;;;5.30;99.90;;;;;;4980886;28;20043;-87
2022/03/28 04:13:27;;;;;;;10.63;4.63;;;5.30;99.90;;;;;;4968707;28;20034;-87
2022/03/28 04:15:53;;;;;;;9.85;4.13;;;6.30;99.90;;;;;;4974667;28;20073;-88
2022/03/28 04:18:19;;;;;;;10.05;4.32;;;5.70;99.90;;;;;;4974085;28;20100;-87
2022/03/28 04:20:45;;;;;;;9.15;3.50;;;6.00;99.90;;;;;;4996904;28;20060;-87
2022/03/28 04:23:11;;;;;;;8.57;3.17;;;6.40;99.90;;;;;;4984265;28;20038;-86
2022/03/28 04:25:36;;;;;;;8.68;2.90;;;6.50;99.90;;;;;;5012940;28;20048;-87
2022/03/28 04:28:06;;;;;;;8.70;3.08;;;5.30;99.90;;;;;;4992500;28;20053;-87
2022/03/28 04:30:32;;;;;;;9.20;3.70;;;5.30;99.90;;;;;;4995740;28;20044;-87
2022/03/28 04:32:57;;;;;;;9.52;3.50;;;5.30;99.90;;;;;;4986735;28;20037;-87
2022/03/28 04:35:23;;;;;;;11.52;4.72;;;5.30;99.90;;;;;;4989639;28;20427;-87
2022/03/28 04:37:49;;;;;;;12.88;5.05;;;5.30;99.90;;;;;;4994071;28;20081;-87
2022/03/28 04:40:16;;;;;;;15.30;6.72;;;5.40;99.90;;;;;;4980461;28;20045;-87
2022/03/28 04:42:43;;;;;;;18.90;8.32;;;6.40;99.90;;;;;;4984112;28;20493;-87
2022/03/28 04:45:09;;;;;;;20.98;9.70;;;5.80;99.90;;;;;;4979269;28;20045;-87
2022/03/28 04:47:36;;;;;;;20.45;9.77;;;5.40;99.90;;;;;;4978494;28;20118;-87
2022/03/28 04:50:03;;;;;;;20.40;9.32;;;6.40;99.90;;;;;;4986923;28;20042;-86
2022/03/28 04:52:29;;;;;;;18.73;8.70;;;5.40;99.90;;;;;;4993879;28;20029;-87
2022/03/28 04:54:54;;;;;;;17.05;7.97;;;6.30;99.90;;;;;;4990040;28;20483;-86
2022/03/28 04:57:20;;;;;;;20.73;9.13;;;5.40;99.90;;;;;;5010098;28;20069;-87
2022/03/28 04:59:46;;;;;;;19.65;8.80;;;6.20;99.90;;;;;;5006227;28;20041;-87
2022/03/28 05:02:12;;;;;;;19.77;9.48;;;5.40;99.90;;;;;;4985112;28;20465;-87
2022/03/28 05:04:38;;;;;;;17.95;8.70;;;6.50;99.90;;;;;;4973934;28;20041;-87
2022/03/28 05:07:03;;;;;;;20.70;9.63;;;5.40;99.90;;;;;;4958182;28;20041;-87
2022/03/28 05:09:29;;;;;;;20.92;9.13;;;5.50;99.90;;;;;;4964529;28;20033;-87
2022/03/28 05:11:55;;;;;;;20.05;9.90;;;5.80;99.90;;;;;;4988754;28;20200;-89
2022/03/28 05:14:22;;;;;;;24.58;10.82;;;5.50;99.90;;;;;;4953400;28;20250;-88
2022/03/28 05:16:48;;;;;;;26.10;12.07;;;5.50;99.90;;;;;;4975757;28;20340;-88
2022/03/28 05:19:14;;;;;;;29.35;12.18;;;6.10;99.90;;;;;;4986335;28;20626;-88
2022/03/28 05:21:40;;;;;;;29.50;13.50;;;5.60;99.90;;;;;;4987146;28;20324;-88
2022/03/28 05:24:06;;;;;;;30.60;15.30;;;5.60;99.90;;;;;;4985780;28;20530;-88
2022/03/28 05:26:32;;;;;;;35.72;17.88;;;5.60;99.90;;;;;;4989626;28;20045;-88
2022/03/28 05:28:58;;;;;;;35.40;18.60;;;5.60;99.90;;;;;;4990951;28;20044;-88
2022/03/28 05:31:23;;;;;;;37.70;19.15;;;5.60;99.90;;;;;;5006126;28;20460;-88
2022/03/28 05:33:49;;;;;;;36.42;18.95;;;5.60;99.90;;;;;;4955664;28;20077;-87
2022/03/28 05:36:15;;;;;;;33.53;17.58;;;5.60;99.90;;;;;;4983950;28;20038;-88
2022/03/28 05:38:42;;;;;;;37.90;19.65;;;5.80;99.90;;;;;;4968150;28;20417;-88
2022/03/28 05:41:08;;;;;;;37.03;18.85;;;5.60;99.90;;;;;;5016779;28;20041;-87
2022/03/28 05:43:35;;;;;;;40.42;22.00;;;5.60;99.90;;;;;;4965027;28;20171;-88
2022/03/28 05:46:02;;;;;;;44.22;21.27;;;7.00;99.90;;;;;;5010818;28;20041;-88
2022/03/28 05:48:28;;;;;;;41.78;20.58;;;6.60;99.90;;;;;;5000206;28;20117;-88
2022/03/28 05:50:54;;;;;;;39.25;19.65;;;5.60;99.90;;;;;;5017009;28;20048;-88
2022/03/28 05:53:20;;;;;;;42.83;21.50;;;6.10;99.90;;;;;;4997158;28;20045;-88
2022/03/28 05:55:46;;;;;;;40.22;20.45;;;6.50;99.90;;;;;;5010881;28;20040;-87
2022/03/28 05:58:12;;;;;;;37.25;19.88;;;5.60;99.90;;;;;;5013008;28;20192;-89
2022/03/28 06:00:39;;;;;;;41.10;21.67;;;5.60;99.90;;;;;;5020384;28;20066;-89
2022/03/28 06:03:05;;;;;;;42.03;21.23;;;5.60;99.90;;;;;;5023633;28;20037;-88
2022/03/28 06:05:31;;;;;;;40.75;22.00;;;5.60;99.90;;;;;;5027192;28;20076;-89
2022/03/28 06:07:58;;;;;;;36.50;19.77;;;5.60;99.90;;;;;;5002506;28;20072;-88
2022/03/28 06:10:24;;;;;;;31.15;17.80;;;5.70;99.90;;;;;;5007652;28;20083;-87
2022/03/28 06:12:50;;;;;;;29.23;16.75;;;6.80;99.90;;;;;;4999833;28;20467;-88
2022/03/28 06:15:16;;;;;;;30.00;16.38;;;5.70;99.90;;;;;;4995251;28;20045;-88
2022/03/28 06:17:43;;;;;;;27.05;15.63;;;5.70;99.90;;;;;;5005563;28;20478;-87
2022/03/28 06:20:13;;;;;;;25.02;15.10;;;5.70;99.90;;;;;;4996293;28;20041;-87
2022/03/28 06:22:40;;;;;;;27.77;16.38;;;5.70;99.90;;;;;;5016162;28;20087;-88
2022/03/28 06:25:07;;;;;;;32.33;18.15;;;5.80;99.90;;;;;;5032359;28;20140;-88
2022/03/28 06:27:33;;;;;;;25.90;16.10;;;5.80;99.90;;;;;;4987031;28;20469;-88
2022/03/28 06:29:59;;;;;;;25.75;15.23;;;5.80;99.90;;;;;;4997044;28;20045;-88
2022/03/28 06:32:24;;;;;;;26.33;15.45;;;5.80;99.90;;;;;;4998081;28;20034;-88
2022/03/28 06:34:52;;;;;;;22.38;13.65;;;5.20;99.90;;;;;;4994740;28;20098;-89
2022/03/28 06:37:22;;;;;;;20.85;12.07;;;6.80;99.90;;;;;;4987300;28;20120;-88
2022/03/28 06:39:48;;;;;;;19.20;11.20;;;5.90;99.90;;;;;;5016638;28;20421;-88
2022/03/28 06:42:14;;;;;;;14.88;8.75;;;7.40;99.90;;;;;;5014887;28;20040;-88
2022/03/28 06:44:40;;;;;;;13.88;8.07;;;5.90;99.90;;;;;;4994639;28;20106;-88
2022/03/28 06:47:06;;;;;;;12.57;7.45;;;5.90;99.90;;;;;;4996343;28;20041;-88
2022/03/28 06:49:32;;;;;;;14.65;7.70;;;5.90;99.90;;;;;;4980436;28;20029;-88
2022/03/28 06:51:59;;;;;;;11.10;6.45;;;5.90;99.90;;;;;;4978598;28;20042;-87
2022/03/28 06:54:25;;;;;;;12.60;6.78;;;6.70;99.90;;;;;;5012571;28;20498;-87
2022/03/28 06:56:50;;;;;;;12.88;7.15;;;6.90;99.90;;;;;;4980111;28;20038;-87
2022/03/28 06:59:16;;;;;;;12.13;6.47;;;6.70;99.90;;;;;;4998555;28;20238;-87
2022/03/28 07:01:43;;;;;;;12.32;6.47;;;6.10;99.90;;;;;;5015279;28;20047;-87
2022/03/28 07:04:12;;;;;;;12.55;6.38;;;7.80;99.90;;;;;;4982562;28;20034;-87
2022/03/28 07:06:38;;;;;;;11.23;6.13;;;6.10;99.90;;;;;;5028912;28;20130;-87
2022/03/28 07:09:04;;;;;;;12.68;7.03;;;7.10;99.90;;;;;;5042263;28;20045;-87
2022/03/28 07:11:31;;;;;;;12.23;6.38;;;6.30;99.90;;;;;;4994791;28;20103;-87
2022/03/28 07:13:57;;;;;;;11.65;6.65;;;6.20;99.90;;;;;;4990662;28;20120;-87
2022/03/28 07:16:23;;;;;;;11.82;6.78;;;6.20;99.90;;;;;;4988223;28;20495;-87
2022/03/28 07:18:48;;;;;;;14.07;7.82;;;6.20;99.90;;;;;;5009102;28;20069;-87
2022/03/28 07:21:14;;;;;;;13.60;6.65;;;7.20;99.90;;;;;;5013468;28;20029;-88
2022/03/28 07:23:40;;;;;;;12.45;6.40;;;7.20;99.90;;;;;;5014978;28;20037;-88
2022/03/28 07:26:08;;;;;;;12.00;6.78;;;6.60;99.90;;;;;;4996217;28;20037;-88
2022/03/28 07:28:35;;;;;;;11.95;6.45;;;6.30;99.90;;;;;;5014878;28;20043;-89
2022/03/28 07:31:01;;;;;;;12.55;6.95;;;6.30;99.90;;;;;;4985651;28;20037;-89
2022/03/28 07:33:27;;;;;;;11.73;6.55;;;6.30;99.90;;;;;;5003688;28;20102;-89
2022/03/28 07:35:55;;;;;;;13.98;6.95;;;7.60;99.90;;;;;;5017075;28;20068;-90
2022/03/28 07:38:21;;;;;;;11.27;6.45;;;6.40;99.90;;;;;;4987787;28;20049;-90
2022/03/28 07:40:47;;;;;;;12.18;7.03;;;6.70;99.90;;;;;;4989189;28;20033;-90
2022/03/28 07:43:12;;;;;;;14.70;7.32;;;6.40;99.90;;;;;;4980073;28;20034;-89
2022/03/28 07:45:38;;;;;;;12.98;7.63;;;6.50;99.90;;;;;;4998239;28;20041;-89
2022/03/28 07:48:06;;;;;;;12.48;7.40;;;6.50;99.90;;;;;;4982894;28;20045;-89
2022/03/28 07:50:32;;;;;;;17.23;8.80;;;6.50;99.90;;;;;;4991774;28;20463;-89
2022/03/28 07:52:58;;;;;;;17.00;9.43;;;6.50;99.90;;;;;;5017931;28;20091;-89
2022/03/28 07:55:26;;;;;;;18.67;9.93;;;6.50;99.90;;;;;;4999921;28;20494;-89
2022/03/28 07:57:51;;;;;;;18.48;9.27;;;7.10;99.90;;;;;;4999721;28;20092;-88
2022/03/28 08:00:19;;;;;;;16.45;9.35;;;6.60;99.90;;;;;;5013460;28;20043;-89
2022/03/28 08:02:45;;;;;;;17.38;9.50;;;5.70;99.90;;;;;;4970029;28;20049;-89
2022/03/28 08:05:11;;;;;;;18.30;10.93;;;6.70;99.90;;;;;;4981549;28;20464;-90
2022/03/28 08:07:36;;;;;;;16.55;9.93;;;6.80;99.90;;;;;;5001810;28;20116;-90
2022/03/28 08:10:06;;;;;;;18.35;9.90;;;6.90;99.90;;;;;;5000310;28;20128;-89
2022/03/28 08:12:33;;;;;;;19.10;9.75;;;6.90;99.90;;;;;;4997282;28;20046;-90
2022/03/28 08:14:59;;;;;;;18.05;9.80;;;7.70;99.90;;;;;;4994574;28;20069;-90
2022/03/28 08:17:24;;;;;;;16.63;9.93;;;7.20;99.90;;;;;;5012390;28;20466;-89
2022/03/28 08:19:50;;;;;;;18.25;10.00;;;6.90;99.90;;;;;;4999386;28;20076;-91
2022/03/28 08:22:17;;;;;;;19.65;11.05;;;7.50;99.90;;;;;;4996009;28;20046;-89
2022/03/28 08:24:43;;;;;;;20.98;10.77;;;7.00;99.90;;;;;;4985102;28;20065;-89
2022/03/28 08:27:09;;;;;;;19.48;11.27;;;7.00;99.90;;;;;;5000510;28;20457;-90
2022/03/28 08:29:35;;;;;;;17.98;11.45;;;7.70;99.90;;;;;;4996563;28;20491;-89
2022/03/28 08:32:02;;;;;;;19.65;11.23;;;8.20;99.90;;;;;;4998521;28;20052;-89
2022/03/28 08:34:29;;;;;;;19.25;11.43;;;7.00;99.90;;;;;;4999262;28;20095;-89
2022/03/28 08:36:55;;;;;;;18.40;10.80;;;7.00;99.90;;;;;;5012235;28;20198;-89
2022/03/28 08:39:21;;;;;;;19.20;10.65;;;7.90;99.90;;;;;;4998107;28;20041;-89
2022/03/28 08:41:48;;;;;;;19.25;10.40;;;7.00;99.90;;;;;;4982295;28;20060;-89
2022/03/28 08:44:15;;;;;;;20.58;11.50;;;7.00;99.90;;;;;;4998665;28;20132;-90
2022/03/28 08:46:43;;;;;;;20.17;12.65;;;7.10;99.90;;;;;;5025672;28;20164;-89
2022/03/28 08:49:10;;;;;;;20.48;12.63;;;7.10;99.90;;;;;;5003469;28;20041;-89
2022/03/28 08:51:36;;;;;;;19.95;12.40;;;7.20;99.90;;;;;;4996939;28;20046;-90
2022/03/28 08:54:03;;;;;;;19.23;12.23;;;7.80;99.90;;;;;;5006038;28;20042;-89
2022/03/28 08:56:30;;;;;;;19.42;11.48;;;7.30;99.90;;;;;;5006860;28;20108;-89
2022/03/28 08:58:56;;;;;;;22.35;12.27;;;8.20;99.90;;;;;;4996298;28;20052;-88
2022/03/28 09:01:23;;;;;;;22.05;12.27;;;7.40;99.90;;;;;;4998917;28;20042;-89
2022/03/28 09:03:49;;;;;;;18.58;11.60;;;7.40;99.90;;;;;;5001320;28;20029;-90
2022/03/28 09:06:39;;;;;;;19.55;11.23;;;7.40;99.90;;;;;;5004821;28;20033;-90
2022/03/28 09:09:10;;;;;;;19.20;12.05;;;7.50;99.90;;;;;;5006099;28;20044;-89
2022/03/28 09:11:37;;;;;;;18.00;11.38;;;7.40;99.90;;;;;;4995750;28;20068;-89
2022/03/28 09:14:03;;;;;;;19.63;12.23;;;7.40;99.90;;;;;;5004315;28;20045;-89
2022/03/28 09:16:34;;;;;;;20.48;11.88;;;7.50;99.90;;;;;;4997188;28;20033;-89
2022/03/28 09:19:08;;;;;;;18.45;11.50;;;7.50;99.90;;;;;;4977205;28;20038;-89
2022/03/28 09:21:34;;;;;;;17.90;11.20;;;7.50;99.90;;;;;;5008012;28;20289;-89
2022/03/28 09:24:04;;;;;;;20.33;11.98;;;7.80;99.90;;;;;;4967815;28;20299;-89
2022/03/28 09:26:30;;;;;;;18.42;10.52;;;7.60;99.90;;;;;;4999481;28;20453;-88
2022/03/28 09:29:01;;;;;;;19.60;11.93;;;7.80;99.90;;;;;;5009982;28;20034;-89
2022/03/28 09:31:37;;;;;;;19.80;11.73;;;7.70;99.90;;;;;;4994354;28;20121;-91
2022/03/28 09:34:06;;;;;;;22.83;12.07;;;7.70;99.90;;;;;;5027350;28;20045;-90
2022/03/28 09:36:42;;;;;;;19.20;11.50;;;8.60;99.90;;;;;;4997501;28;20037;-89
2022/03/28 09:39:18;;;;;;;18.73;11.15;;;7.70;99.90;;;;;;5008070;28;20050;-90
2022/03/28 09:42:05;;;;;;;20.45;11.45;;;7.80;99.90;;;;;;5002659;28;20030;-90
2022/03/28 09:44:49;;;;;;;19.90;12.07;;;7.80;99.90;;;;;;5011779;28;20371;-89
2022/03/28 09:47:17;;;;;;;21.38;11.65;;;7.80;99.90;;;;;;4977864;28;20038;-89
2022/03/28 09:49:45;;;;;;;18.15;11.45;;;9.10;99.90;;;;;;4973842;28;20398;-88
2022/03/28 09:52:13;;;;;;;17.85;11.40;;;7.80;99.90;;;;;;4981040;28;20045;-89
2022/03/28 09:54:54;;;;;;;20.30;11.70;;;7.80;99.90;;;;;;4992328;28;20140;-89
2022/03/28 09:57:34;;;;;;;21.50;11.70;;;7.90;99.90;;;;;;5013427;28;20045;-89
2022/03/28 10:00:09;;;;;;;19.70;12.05;;;7.90;99.90;;;;;;4995911;28;20065;-89
2022/03/28 10:02:35;;;;;;;19.70;12.50;;;7.90;99.90;;;;;;4991669;28;20096;-89
2022/03/28 10:05:01;;;;;;;20.35;12.60;;;7.90;99.90;;;;;;4978277;28;20052;-89
2022/03/28 10:07:27;;;;;;;20.23;11.88;;;8.10;99.90;;;;;;4996593;28;20111;-90
2022/03/28 10:09:53;;;;;;;18.40;11.25;;;8.00;99.90;;;;;;4997247;28;20292;-89
2022/03/28 10:12:21;;;;;;;18.17;11.75;;;8.70;99.90;;;;;;4996374;28;20334;-88
2022/03/28 10:14:50;;;;;;;19.13;12.05;;;8.20;99.90;;;;;;4993630;28;20108;-89
2022/03/28 10:17:17;;;;;;;20.40;12.38;;;8.20;99.90;;;;;;5000049;28;20518;-89
2022/03/28 10:19:43;;;;;;;19.92;11.98;;;8.20;99.90;;;;;;4993327;28;20041;-89
2022/03/28 10:22:15;;;;;;;18.75;12.00;;;9.30;99.90;;;;;;4971896;28;20037;-89
2022/03/28 10:24:43;;;;;;;17.85;11.65;;;9.30;99.90;;;;;;4997909;28;20533;-88
2022/03/28 10:27:10;;;;;;;21.77;12.55;;;9.20;99.90;;;;;;5000378;28;20574;-89
2022/03/28 10:29:41;;;;;;;19.60;12.02;;;8.40;99.90;;;;;;4996076;28;20039;-89
2022/03/28 10:32:17;;;;;;;18.80;11.70;;;8.40;99.90;;;;;;4996745;28;20065;-89
2022/03/28 10:34:56;;;;;;;19.75;12.98;;;8.50;99.90;;;;;;4996813;28;20046;-89
2022/03/28 10:37:44;;;;;;;20.60;11.95;;;8.70;99.90;;;;;;4996169;28;20111;-89
2022/03/28 10:40:23;;;;;;;21.60;13.02;;;8.80;99.90;;;;;;5015476;28;20067;-90
2022/03/28 10:43:11;;;;;;;20.23;12.43;;;8.80;99.90;;;;;;5011520;28;20095;-90
2022/03/28 10:46:09;;;;;;;18.42;10.73;;;8.90;99.90;;;;;;5017386;28;20572;-89
2022/03/28 10:49:02;;;;;;;19.90;12.18;;;9.10;99.90;;;;;;5012843;28;20505;-89
2022/03/28 10:51:31;;;;;;;18.65;11.82;;;9.20;99.90;;;;;;5027974;28;20525;-89
2022/03/28 10:54:05;;;;;;;20.88;12.18;;;9.50;99.90;;;;;;5013686;28;20037;-89
2022/03/28 10:56:37;;;;;;;18.75;11.75;;;9.30;99.90;;;;;;5031404;28;20041;-89
2022/03/28 10:59:07;;;;;;;20.17;12.73;;;9.30;99.90;;;;;;5013950;28;20573;-89
2022/03/28 11:01:46;;;;;;;19.30;12.75;;;9.20;99.90;;;;;;4998720;28;20402;-90
2022/03/28 11:04:24;;;;;;;20.20;12.23;;;9.30;99.90;;;;;;5013974;28;20037;-89
2022/03/28 11:07:01;;;;;;;21.10;12.27;;;9.30;99.90;;;;;;5005594;28;20529;-90
2022/03/28 11:09:48;;;;;;;18.75;12.00;;;9.40;99.90;;;;;;5020824;28;20496;-91
2022/03/28 11:12:15;;;;;;;20.77;12.55;;;9.50;99.90;;;;;;5006912;28;20044;-90
2022/03/28 11:14:42;;;;;;;18.85;11.68;;;9.60;99.90;;;;;;5009318;28;20045;-89
2022/03/28 11:17:23;;;;;;;19.20;11.90;;;9.70;99.90;;;;;;5019150;28;20036;-89
2022/03/28 11:19:54;;;;;;;19.38;12.13;;;9.70;99.90;;;;;;5022189;28;20038;-89
2022/03/28 11:22:56;;;;;;;18.17;12.27;;;9.90;99.90;;;;;;4998433;28;20121;-89
2022/03/28 11:25:36;;;;;;;18.33;12.18;;;10.00;99.90;;;;;;5021836;28;20441;-90
2022/03/28 11:28:24;;;;;;;19.30;12.05;;;10.10;99.90;;;;;;5014481;28;20032;-90
2022/03/28 11:30:56;;;;;;;19.58;11.82;;;10.20;99.90;;;;;;5015901;28;20044;-89
2022/03/28 11:33:27;;;;;;;18.58;12.50;;;10.30;99.90;;;;;;5013700;28;20636;-90
2022/03/28 11:35:58;;;;;;;19.80;12.40;;;11.20;99.90;;;;;;5015140;28;20049;-89
2022/03/28 11:38:27;;;;;;;19.27;12.85;;;10.50;99.90;;;;;;5013474;28;20450;-89
2022/03/28 11:40:54;;;;;;;19.00;12.18;;;10.80;99.90;;;;;;5012698;28;20038;-90
2022/03/28 11:43:30;;;;;;;18.23;12.00;;;10.70;99.90;;;;;;5014808;28;20044;-88
2022/03/28 11:45:57;;;;;;;18.55;12.52;;;10.80;99.90;;;;;;4970840;28;21426;-88
2022/03/28 11:48:23;;;;;;;20.08;12.85;;;10.90;99.90;;;;;;5031019;28;20056;-88
2022/03/28 11:50:49;;;;;;;18.35;12.63;;;10.90;99.90;;;;;;4986759;28;20446;-88
2022/03/28 11:53:16;;;;;;;20.67;13.27;;;11.00;99.90;;;;;;4979258;28;20087;-89
2022/03/28 11:55:53;;;;;;;18.20;12.45;;;11.10;99.90;;;;;;5013716;28;20060;-89
2022/03/28 11:58:31;;;;;;;18.05;12.32;;;11.10;99.90;;;;;;5014104;28;20087;-89
2022/03/28 12:01:12;;;;;;;18.90;12.57;;;11.10;99.90;;;;;;5010532;28;20029;-89
2022/03/28 12:03:48;;;;;;;18.50;11.82;;;11.10;99.90;;;;;;5015184;28;20568;-89
2022/03/28 12:06:35;;;;;;;19.00;12.38;;;11.10;99.90;;;;;;5013396;28;20128;-89
2022/03/28 12:09:01;;;;;;;17.85;12.07;;;11.20;99.90;;;;;;5014319;28;20067;-90
2022/03/28 12:11:27;;;;;;;20.00;12.60;;;11.30;99.90;;;;;;5014952;28;20502;-89
2022/03/28 12:13:54;;;;;;;18.55;11.02;;;11.50;99.90;;;;;;4998797;28;20044;-89
2022/03/28 12:16:21;;;;;;;18.88;11.88;;;11.60;99.90;;;;;;5015230;28;20566;-88
2022/03/28 12:18:48;;;;;;;18.65;11.80;;;11.70;99.90;;;;;;4998593;28;20040;-90
2022/03/28 12:21:14;;;;;;;18.73;11.77;;;12.30;99.90;;;;;;5017571;28;20083;-88
2022/03/28 12:23:39;;;;;;;17.85;11.50;;;12.10;99.90;;;;;;5018055;28;20037;-89
2022/03/28 12:26:05;;;;;;;16.58;11.07;;;11.90;99.90;;;;;;4997304;28;20037;-88
2022/03/28 12:28:34;;;;;;;17.23;11.23;;;11.80;99.90;;;;;;4981328;28;20045;-88
2022/03/28 12:31:05;;;;;;;16.58;10.88;;;11.70;99.90;;;;;;5006231;28;20045;-89
2022/03/28 12:33:34;;;;;;;17.70;11.13;;;11.70;99.90;;;;;;5016015;28;20406;-88
2022/03/28 12:36:05;;;;;;;16.85;11.55;;;11.50;99.90;;;;;;5032850;28;20045;-89
2022/03/28 12:38:35;;;;;;;17.08;11.57;;;11.50;99.90;;;;;;5017870;28;20124;-90
2022/03/28 12:41:08;;;;;;;16.67;11.15;;;11.50;99.90;;;;;;5032749;28;20037;-89
2022/03/28 12:43:35;;;;;;;17.65;11.48;;;11.50;99.90;;;;;;5017506;28;20041;-87
2022/03/28 12:46:09;;;;;;;18.45;12.05;;;11.50;99.90;;;;;;5021547;28;20459;-88
2022/03/28 12:48:39;;;;;;;16.67;11.73;;;11.40;99.90;;;;;;5034698;28;20500;-88